Time;durP1;ratioP1;P1;durP2;ratioP2;P2;SDS_P1;SDS_P2;PMS_P1;PMS_P2;Temp;Humidity;BMP_temperature;BMP_pressure;BME280_temperature;BME280_humidity;BME280_pressure;Samples;Min_cycle;Max_cycle;Signal;HPM_P1;HPM_P2
2022/07/06 00:00:11;;;;;;;;;;;;;;;;;;1035287;28;3887;-45
2022/07/06 00:01:01;;;;;;;;;;;;;;;;;;1031706;28;4285;-49
2022/07/06 00:01:32;;;;;;;;;;;;;;;;;;1034699;28;3408;-47
2022/07/06 00:02:02;;;;;;;;;;;;;;;;;;1031213;28;4237;-52
2022/07/06 00:02:32;;;;;;;;;;;;;;;;;;1035079;28;3645;-50
2022/07/06 00:03:03;;;;;;;;;;;;;;;;;;1036023;28;4441;-45
2022/07/06 00:03:33;;;;;;;;;;;;;;;;;;1036654;28;3756;-49
2022/07/06 00:04:04;;;;;;;;;;;;;;;;;;1037049;28;3954;-44
2022/07/06 00:04:34;;;;;;;;;;;;;;;;;;1037639;28;1721;-48
2022/07/06 00:05:04;;;;;;;;;;;;;;;;;;1036947;28;4054;-51
2022/07/06 00:05:35;;;;;;;;;;;;;;;;;;1037034;28;1958;-47
2022/07/06 00:06:05;;;;;;;;;;;;;;;;;;1036644;28;4492;-52
2022/07/06 00:06:35;;;;;;;;;;;;;;;;;;1032267;28;3667;-48
2022/07/06 00:07:06;;;;;;;;;;;;;;;;;;1032342;28;3833;-45
2022/07/06 00:07:36;;;;;;;;;;;;;;;;;;1037614;28;1567;-47
2022/07/06 00:08:06;;;;;;;;;;;;;;;;;;1036582;28;3902;-51
2022/07/06 00:08:37;;;;;;;;;;;;;;;;;;1037458;28;1620;-46
2022/07/06 00:09:07;;;;;;;;;;;;;;;;;;1036598;28;4428;-45
2022/07/06 00:09:38;;;;;;;;;;;;;;;;;;1033386;28;1865;-51
2022/07/06 00:10:08;;;;;;;;;;;;;;;;;;1032524;28;4455;-47
2022/07/06 00:10:38;;;;;;;;;;;;;;;;;;1035612;28;3563;-51
2022/07/06 00:11:09;;;;;;;;;;;;;;;;;;1035665;28;4276;-45
2022/07/06 00:11:39;;;;;;;;;;;;;;;;;;1037956;28;1707;-47
2022/07/06 00:12:09;;;;;;;;;;;;;;;;;;1037541;28;4051;-53
2022/07/06 00:12:39;;;;;;;;;;;;;;;;;;1036513;28;3843;-50
2022/07/06 00:13:10;;;;;;;;;;;;;;;;;;1037410;28;3746;-51
2022/07/06 00:13:47;;;;;;;;;;;;;;;;;;1039013;28;1582;-51
2022/07/06 00:14:17;;;;;;;;;;;;;;;;;;1036942;28;4326;-48
2022/07/06 00:14:48;;;;;;;;;;;;;;;;;;1037585;28;2552;-47
2022/07/06 00:15:18;;;;;;;;;;;;;;;;;;1035760;28;3877;-46
2022/07/06 00:15:48;;;;;;;;;;;;;;;;;;1038823;28;3843;-47
2022/07/06 00:16:19;;;;;;;;;;;;;;;;;;1039235;28;3618;-50
2022/07/06 00:16:49;;;;;;;;;;;;;;;;;;1039499;28;3911;-48
2022/07/06 00:17:19;;;;;;;;;;;;;;;;;;1039940;28;3928;-48
2022/07/06 00:17:49;;;;;;;;;;;;;;;;;;1036904;28;4290;-46
2022/07/06 00:18:20;;;;;;;;;;;;;;;;;;1038022;28;3106;-48
2022/07/06 00:18:50;;;;;;;;;;;;;;;;;;1035929;28;4148;-48
2022/07/06 00:19:20;;;;;;;;;;;;;;;;;;1037869;28;3091;-45
2022/07/06 00:19:51;;;;;;;;;;;;;;;;;;1036856;28;3960;-49
2022/07/06 00:20:21;;;;;;;;;;;;;;;;;;1038423;28;3591;-48
2022/07/06 00:20:51;;;;;;;;;;;;;;;;;;1039654;28;4105;-48
2022/07/06 00:21:21;;;;;;;;;;;;;;;;;;1042465;28;3214;-48
2022/07/06 00:21:52;;;;;;;;;;;;;;;;;;1039710;28;3928;-47
2022/07/06 00:22:22;;;;;;;;;;;;;;;;;;1037940;28;3799;-48
2022/07/06 00:22:52;;;;;;;;;;;;;;;;;;1035620;28;4240;-46
2022/07/06 00:23:22;;;;;;;;;;;;;;;;;;1037949;28;3456;-49
2022/07/06 00:23:53;;;;;;;;;;;;;;;;;;1037017;28;4088;-47
2022/07/06 00:24:23;;;;;;;;;;;;;;;;;;1037672;28;3162;-47
2022/07/06 00:24:53;;;;;;;;;;;;;;;;;;1036672;28;4110;-50
2022/07/06 00:25:24;;;;;;;;;;;;;;;;;;1037847;28;2762;-48
2022/07/06 00:25:54;;;;;;;;;;;;;;;;;;1036211;28;3917;-49
2022/07/06 00:26:24;;;;;;;;;;;;;;;;;;1036235;28;3603;-47
2022/07/06 00:26:54;;;;;;;;;;;;;;;;;;1033440;28;4424;-47
2022/07/06 00:27:25;;;;;;;;;;;;;;;;;;1038257;28;1680;-46
2022/07/06 00:27:55;;;;;;;;;;;;;;;;;;1036144;28;4173;-49
2022/07/06 00:28:25;;;;;;;;;;;;;;;;;;1037639;28;1506;-49
2022/07/06 00:28:55;;;;;;;;;;;;;;;;;;1036588;28;3815;-44
2022/07/06 00:29:26;;;;;;;;;;;;;;;;;;1037805;28;1572;-45
2022/07/06 00:29:56;;;;;;;;;;;;;;;;;;1038333;28;4056;-45
2022/07/06 00:30:26;;;;;;;;;;;;;;;;;;1040227;28;3318;-48
2022/07/06 00:30:57;;;;;;;;;;;;;;;;;;1042068;28;4112;-46
2022/07/06 00:31:27;;;;;;;;;;;;;;;;;;1041699;28;1421;-45
2022/07/06 00:31:57;;;;;;;;;;;;;;;;;;1040892;28;3829;-49
2022/07/06 00:32:28;;;;;;;;;;;;;;;;;;1037953;28;1658;-45
2022/07/06 00:32:59;;;;;;;;;;;;;;;;;;1037732;28;4234;-47
2022/07/06 00:33:29;;;;;;;;;;;;;;;;;;1037388;28;3577;-47
2022/07/06 00:33:59;;;;;;;;;;;;;;;;;;1036916;28;3871;-46
2022/07/06 00:34:29;;;;;;;;;;;;;;;;;;1037683;28;2081;-44
2022/07/06 00:35:00;;;;;;;;;;;;;;;;;;1037240;28;3856;-49
2022/07/06 00:35:31;;;;;;;;;;;;;;;;;;1037954;28;1686;-51
2022/07/06 00:36:02;;;;;;;;;;;;;;;;;;1036897;28;3970;-49
2022/07/06 00:36:32;;;;;;;;;;;;;;;;;;1036806;28;3993;-50
2022/07/06 00:37:02;;;;;;;;;;;;;;;;;;1036309;28;3804;-47
2022/07/06 00:37:33;;;;;;;;;;;;;;;;;;1036151;28;3827;-45
2022/07/06 00:38:03;;;;;;;;;;;;;;;;;;1036648;28;3817;-52
2022/07/06 00:38:34;;;;;;;;;;;;;;;;;;1037493;28;3873;-46
2022/07/06 00:39:11;;;;;;;;;;;;;;;;;;1035814;28;4194;-51
2022/07/06 00:39:48;;;;;;;;;;;;;;;;;;1042133;28;2557;-49
2022/07/06 00:40:25;;;;;;;;;;;;;;;;;;1044564;28;4033;-44
2022/07/06 00:40:55;;;;;;;;;;;;;;;;;;1043650;28;4123;-50
2022/07/06 00:41:25;;;;;;;;;;;;;;;;;;1046006;28;1394;-49
2022/07/06 00:41:56;;;;;;;;;;;;;;;;;;1042634;28;4017;-47
2022/07/06 00:42:26;;;;;;;;;;;;;;;;;;1040947;28;4198;-50
2022/07/06 00:42:57;;;;;;;;;;;;;;;;;;1040237;28;3841;-50
2022/07/06 00:43:27;;;;;;;;;;;;;;;;;;1038183;28;1430;-47
2022/07/06 00:43:57;;;;;;;;;;;;;;;;;;1036338;28;3832;-46
2022/07/06 00:44:28;;;;;;;;;;;;;;;;;;1039906;28;3416;-46
2022/07/06 00:44:59;;;;;;;;;;;;;;;;;;1039549;28;4338;-48
2022/07/06 00:45:29;;;;;;;;;;;;;;;;;;1041805;28;3284;-49
2022/07/06 00:45:59;;;;;;;;;;;;;;;;;;1039728;28;4134;-48
2022/07/06 00:46:33;;;;;;;;;;;;;;;;;;1040556;28;3385;-45
2022/07/06 00:47:03;;;;;;;;;;;;;;;;;;1039001;28;3809;-47
2022/07/06 00:47:34;;;;;;;;;;;;;;;;;;1046672;28;1555;-46
2022/07/06 00:48:04;;;;;;;;;;;;;;;;;;1044324;28;3865;-45
2022/07/06 00:48:34;;;;;;;;;;;;;;;;;;1042848;28;3466;-44
2022/07/06 00:49:04;;;;;;;;;;;;;;;;;;1043631;28;5394;-48
2022/07/06 00:50:25;;;;;;;;;;;;;;;;;;1040891;28;3752;-51
2022/07/06 00:50:55;;;;;;;;;;;;;;;;;;1040552;28;3882;-47
2022/07/06 00:51:29;;;;;;;;;;;;;;;;;;1041297;28;1370;-46
2022/07/06 00:52:00;;;;;;;;;;;;;;;;;;1038664;28;3958;-51
2022/07/06 00:52:30;;;;;;;;;;;;;;;;;;1037617;28;4208;-45
2022/07/06 00:53:01;;;;;;;;;;;;;;;;;;1036256;28;3959;-50
2022/07/06 00:53:32;;;;;;;;;;;;;;;;;;1040325;28;1597;-45
2022/07/06 00:54:03;;;;;;;;;;;;;;;;;;1039373;28;3839;-44
2022/07/06 00:54:34;;;;;;;;;;;;;;;;;;1043473;28;3634;-48
2022/07/06 00:55:04;;;;;;;;;;;;;;;;;;1044876;28;4395;-48
2022/07/06 00:55:36;;;;;;;;;;;;;;;;;;1040989;28;1792;-45
2022/07/06 00:56:07;;;;;;;;;;;;;;;;;;1041372;28;4403;-46
2022/07/06 00:56:37;;;;;;;;;;;;;;;;;;1041183;28;1376;-50
2022/07/06 00:57:07;;;;;;;;;;;;;;;;;;1040248;28;4439;-47
2022/07/06 00:57:38;;;;;;;;;;;;;;;;;;1041385;28;1539;-45
2022/07/06 00:58:10;;;;;;;;;;;;;;;;;;1042113;28;3988;-51
2022/07/06 00:58:40;;;;;;;;;;;;;;;;;;1040688;28;3413;-47
2022/07/06 00:59:13;;;;;;;;;;;;;;;;;;1041196;28;3974;-50
2022/07/06 00:59:43;;;;;;;;;;;;;;;;;;1040129;28;5335;-50
2022/07/06 01:00:15;;;;;;;;;;;;;;;;;;1039647;28;3966;-48
2022/07/06 01:00:46;;;;;;;;;;;;;;;;;;1041155;28;1969;-49
2022/07/06 01:01:16;;;;;;;;;;;;;;;;;;1040673;28;4041;-46
2022/07/06 01:01:46;;;;;;;;;;;;;;;;;;1041490;28;1733;-43
2022/07/06 01:02:18;;;;;;;;;;;;;;;;;;1041024;28;3844;-45
2022/07/06 01:02:50;;;;;;;;;;;;;;;;;;1042455;28;1216;-49
2022/07/06 01:03:20;;;;;;;;;;;;;;;;;;1040292;28;3683;-46
2022/07/06 01:03:50;;;;;;;;;;;;;;;;;;1041552;28;4098;-47
2022/07/06 01:04:20;;;;;;;;;;;;;;;;;;1041269;28;3238;-45
2022/07/06 01:04:51;;;;;;;;;;;;;;;;;;1040921;28;3823;-47
2022/07/06 01:05:22;;;;;;;;;;;;;;;;;;1040230;28;3159;-46
2022/07/06 01:05:52;;;;;;;;;;;;;;;;;;1039364;28;4282;-47
2022/07/06 01:06:22;;;;;;;;;;;;;;;;;;1035738;28;2781;-50
2022/07/06 01:06:53;;;;;;;;;;;;;;;;;;1034073;28;4338;-51
2022/07/06 01:07:23;;;;;;;;;;;;;;;;;;1040735;28;3980;-44
2022/07/06 01:07:54;;;;;;;;;;;;;;;;;;1036744;28;4268;-50
2022/07/06 01:08:24;;;;;;;;;;;;;;;;;;1042131;28;3021;-47
2022/07/06 01:08:55;;;;;;;;;;;;;;;;;;1040870;28;3955;-46
2022/07/06 01:09:25;;;;;;;;;;;;;;;;;;1037084;28;3856;-53
2022/07/06 01:09:55;;;;;;;;;;;;;;;;;;1039370;28;4426;-49
2022/07/06 01:10:26;;;;;;;;;;;;;;;;;;1040652;28;3771;-46
2022/07/06 01:10:56;;;;;;;;;;;;;;;;;;1039366;28;4085;-48
2022/07/06 01:11:27;;;;;;;;;;;;;;;;;;1041195;28;3212;-48
2022/07/06 01:12:03;;;;;;;;;;;;;;;;;;1040795;28;3995;-46
2022/07/06 01:12:34;;;;;;;;;;;;;;;;;;1041568;28;1307;-46
2022/07/06 01:13:04;;;;;;;;;;;;;;;;;;1040428;28;3932;-50
2022/07/06 01:13:35;;;;;;;;;;;;;;;;;;1040979;28;2081;-48
2022/07/06 01:14:05;;;;;;;;;;;;;;;;;;1040286;28;3943;-47
2022/07/06 01:14:36;;;;;;;;;;;;;;;;;;1040742;28;2129;-49
2022/07/06 01:15:08;;;;;;;;;;;;;;;;;;1039160;28;3985;-47
2022/07/06 01:15:38;;;;;;;;;;;;;;;;;;1040754;28;2320;-48
2022/07/06 01:16:08;;;;;;;;;;;;;;;;;;1039125;28;3834;-46
2022/07/06 01:16:39;;;;;;;;;;;;;;;;;;1041511;28;2469;-46
2022/07/06 01:17:09;;;;;;;;;;;;;;;;;;1040016;28;5463;-45
2022/07/06 01:17:40;;;;;;;;;;;;;;;;;;1040557;28;2424;-52
2022/07/06 01:18:11;;;;;;;;;;;;;;;;;;1037939;28;4141;-45
2022/07/06 01:18:42;;;;;;;;;;;;;;;;;;1038445;28;3361;-45
2022/07/06 01:19:12;;;;;;;;;;;;;;;;;;1034950;28;4234;-50
2022/07/06 01:19:43;;;;;;;;;;;;;;;;;;1036381;28;3508;-48
2022/07/06 01:20:14;;;;;;;;;;;;;;;;;;1035193;28;5297;-46
2022/07/06 01:20:45;;;;;;;;;;;;;;;;;;1038043;28;1393;-46
2022/07/06 01:21:15;;;;;;;;;;;;;;;;;;1036776;28;4434;-48
2022/07/06 01:21:45;;;;;;;;;;;;;;;;;;1042191;28;1715;-48
2022/07/06 01:22:16;;;;;;;;;;;;;;;;;;1035718;28;3863;-50
2022/07/06 01:22:47;;;;;;;;;;;;;;;;;;1037054;28;3152;-50
2022/07/06 01:23:17;;;;;;;;;;;;;;;;;;1038319;28;3808;-48
2022/07/06 01:23:48;;;;;;;;;;;;;;;;;;1037673;28;3190;-48
2022/07/06 01:24:18;;;;;;;;;;;;;;;;;;1037238;28;3908;-49
2022/07/06 01:24:48;;;;;;;;;;;;;;;;;;1036798;28;3572;-46
2022/07/06 01:25:20;;;;;;;;;;;;;;;;;;1037076;28;4990;-45
2022/07/06 01:25:50;;;;;;;;;;;;;;;;;;1039590;28;4296;-47
2022/07/06 01:26:21;;;;;;;;;;;;;;;;;;1040625;28;2553;-44
2022/07/06 01:26:51;;;;;;;;;;;;;;;;;;1042343;28;3912;-45
2022/07/06 01:27:21;;;;;;;;;;;;;;;;;;1045078;28;3720;-48
2022/07/06 01:27:52;;;;;;;;;;;;;;;;;;1044736;28;3911;-53
2022/07/06 01:28:22;;;;;;;;;;;;;;;;;;1045981;28;3559;-49
2022/07/06 01:28:52;;;;;;;;;;;;;;;;;;1039384;28;3911;-47
2022/07/06 01:29:23;;;;;;;;;;;;;;;;;;1041163;28;2645;-45
2022/07/06 01:29:53;;;;;;;;;;;;;;;;;;1039912;28;3914;-46
2022/07/06 01:30:23;;;;;;;;;;;;;;;;;;1041133;28;3463;-44
2022/07/06 01:30:54;;;;;;;;;;;;;;;;;;1039757;28;3851;-49
2022/07/06 01:31:25;;;;;;;;;;;;;;;;;;1041739;28;3909;-50
2022/07/06 01:31:55;;;;;;;;;;;;;;;;;;1044052;28;4068;-45
2022/07/06 01:32:26;;;;;;;;;;;;;;;;;;1045501;28;3491;-49
2022/07/06 01:32:56;;;;;;;;;;;;;;;;;;1044108;28;3870;-45
2022/07/06 01:33:26;;;;;;;;;;;;;;;;;;1045865;28;2217;-45
2022/07/06 01:33:57;;;;;;;;;;;;;;;;;;1036305;28;4281;-49
2022/07/06 01:34:27;;;;;;;;;;;;;;;;;;1037307;28;2869;-48
2022/07/06 01:34:57;;;;;;;;;;;;;;;;;;1036377;28;4327;-47
2022/07/06 01:35:29;;;;;;;;;;;;;;;;;;1036960;28;2178;-51
2022/07/06 01:35:59;;;;;;;;;;;;;;;;;;1034328;28;4451;-50
2022/07/06 01:36:29;;;;;;;;;;;;;;;;;;1037278;28;1352;-47
2022/07/06 01:37:00;;;;;;;;;;;;;;;;;;1035331;28;4079;-46
2022/07/06 01:37:30;;;;;;;;;;;;;;;;;;1041220;28;3142;-46
2022/07/06 01:38:00;;;;;;;;;;;;;;;;;;1038952;28;3944;-44
2022/07/06 01:38:30;;;;;;;;;;;;;;;;;;1039689;28;1698;-52
2022/07/06 01:39:01;;;;;;;;;;;;;;;;;;1040793;28;4416;-47
2022/07/06 01:39:38;;;;;;;;;;;;;;;;;;1043690;28;1601;-47
2022/07/06 01:40:15;;;;;;;;;;;;;;;;;;1044099;28;4121;-49
2022/07/06 01:40:45;;;;;;;;;;;;;;;;;;1045372;28;1301;-47
2022/07/06 01:41:16;;;;;;;;;;;;;;;;;;1043355;28;3944;-49
2022/07/06 01:41:46;;;;;;;;;;;;;;;;;;1044221;28;3249;-46
2022/07/06 01:42:17;;;;;;;;;;;;;;;;;;1044222;28;3963;-46
2022/07/06 01:42:47;;;;;;;;;;;;;;;;;;1045953;28;2212;-48
2022/07/06 01:43:17;;;;;;;;;;;;;;;;;;1039769;28;3910;-48
2022/07/06 01:43:48;;;;;;;;;;;;;;;;;;1040975;28;2199;-50
2022/07/06 01:44:18;;;;;;;;;;;;;;;;;;1040053;28;3898;-52
2022/07/06 01:44:48;;;;;;;;;;;;;;;;;;1035893;28;3738;-44
2022/07/06 01:45:19;;;;;;;;;;;;;;;;;;1034636;28;3993;-44
2022/07/06 01:45:49;;;;;;;;;;;;;;;;;;1033783;28;4015;-46
2022/07/06 01:46:19;;;;;;;;;;;;;;;;;;1031550;28;3333;-48
2022/07/06 01:46:49;;;;;;;;;;;;;;;;;;1035625;28;4081;-46
2022/07/06 01:47:20;;;;;;;;;;;;;;;;;;1038211;28;3649;-47
2022/07/06 01:47:50;;;;;;;;;;;;;;;;;;1045268;28;3944;-52
2022/07/06 01:48:20;;;;;;;;;;;;;;;;;;1045072;28;3343;-51
2022/07/06 01:48:51;;;;;;;;;;;;;;;;;;1045317;28;4071;-46
2022/07/06 01:49:21;;;;;;;;;;;;;;;;;;1044213;28;2362;-48
2022/07/06 01:49:52;;;;;;;;;;;;;;;;;;1041195;28;3898;-49
2022/07/06 01:50:22;;;;;;;;;;;;;;;;;;1042144;28;3608;-48
2022/07/06 01:50:52;;;;;;;;;;;;;;;;;;1040687;28;3850;-48
2022/07/06 01:51:23;;;;;;;;;;;;;;;;;;1040094;28;3901;-47
2022/07/06 01:51:53;;;;;;;;;;;;;;;;;;1043757;28;4450;-45
2022/07/06 01:52:24;;;;;;;;;;;;;;;;;;1043893;28;3318;-52
2022/07/06 01:52:54;;;;;;;;;;;;;;;;;;1040638;28;3831;-48
2022/07/06 01:53:24;;;;;;;;;;;;;;;;;;1039901;28;3866;-46
2022/07/06 01:53:54;;;;;;;;;;;;;;;;;;1041144;28;3939;-50
2022/07/06 01:54:25;;;;;;;;;;;;;;;;;;1041464;28;1722;-46
2022/07/06 01:54:56;;;;;;;;;;;;;;;;;;1045032;28;4251;-49
2022/07/06 01:55:26;;;;;;;;;;;;;;;;;;1044436;28;2903;-51
2022/07/06 01:55:56;;;;;;;;;;;;;;;;;;1039241;28;4421;-47
2022/07/06 01:56:27;;;;;;;;;;;;;;;;;;1042306;28;1305;-47
2022/07/06 01:56:57;;;;;;;;;;;;;;;;;;1039610;28;4051;-46
2022/07/06 01:57:27;;;;;;;;;;;;;;;;;;1042525;28;1625;-50
2022/07/06 01:57:57;;;;;;;;;;;;;;;;;;1043500;28;3868;-50
2022/07/06 01:58:28;;;;;;;;;;;;;;;;;;1045486;28;1693;-46
2022/07/06 01:58:58;;;;;;;;;;;;;;;;;;1044208;28;3869;-47
2022/07/06 01:59:28;;;;;;;;;;;;;;;;;;1042176;28;1737;-45
2022/07/06 01:59:58;;;;;;;;;;;;;;;;;;1039521;28;3872;-47
2022/07/06 02:00:29;;;;;;;;;;;;;;;;;;1041657;28;3421;-46
2022/07/06 02:00:59;;;;;;;;;;;;;;;;;;1036368;28;3950;-48
2022/07/06 02:01:29;;;;;;;;;;;;;;;;;;1041748;28;1777;-47
2022/07/06 02:02:00;;;;;;;;;;;;;;;;;;1040467;28;4094;-47
2022/07/06 02:02:30;;;;;;;;;;;;;;;;;;1041221;28;3019;-47
2022/07/06 02:03:00;;;;;;;;;;;;;;;;;;1044173;28;3947;-50
2022/07/06 02:03:30;;;;;;;;;;;;;;;;;;1044957;28;2584;-49
2022/07/06 02:04:01;;;;;;;;;;;;;;;;;;1044424;28;3797;-50
2022/07/06 02:04:31;;;;;;;;;;;;;;;;;;1044031;28;2609;-46
2022/07/06 02:05:02;;;;;;;;;;;;;;;;;;1043994;28;3986;-49
2022/07/06 02:05:32;;;;;;;;;;;;;;;;;;1044636;28;1763;-47
2022/07/06 02:06:03;;;;;;;;;;;;;;;;;;1043506;28;3884;-45
2022/07/06 02:06:33;;;;;;;;;;;;;;;;;;1044161;28;2971;-48
2022/07/06 02:07:03;;;;;;;;;;;;;;;;;;1042498;28;4277;-52
2022/07/06 02:07:33;;;;;;;;;;;;;;;;;;1045830;28;1349;-48
2022/07/06 02:08:04;;;;;;;;;;;;;;;;;;1043004;28;3915;-50
2022/07/06 02:08:35;;;;;;;;;;;;;;;;;;1045254;28;1691;-47
2022/07/06 02:09:05;;;;;;;;;;;;;;;;;;1044456;28;4054;-46
2022/07/06 02:09:35;;;;;;;;;;;;;;;;;;1045458;28;1337;-51
2022/07/06 02:10:06;;;;;;;;;;;;;;;;;;1043651;28;3929;-48
2022/07/06 02:10:36;;;;;;;;;;;;;;;;;;1045285;28;1607;-49
2022/07/06 02:11:07;;;;;;;;;;;;;;;;;;1045084;28;4424;-47
2022/07/06 02:11:37;;;;;;;;;;;;;;;;;;1045556;28;1999;-48
2022/07/06 02:12:14;;;;;;;;;;;;;;;;;;1044613;28;3780;-51
2022/07/06 02:12:44;;;;;;;;;;;;;;;;;;1044257;28;3137;-45
2022/07/06 02:13:15;;;;;;;;;;;;;;;;;;1043949;28;4420;-49
2022/07/06 02:13:45;;;;;;;;;;;;;;;;;;1045392;28;1803;-49
2022/07/06 02:14:15;;;;;;;;;;;;;;;;;;1044166;28;4051;-47
2022/07/06 02:14:45;;;;;;;;;;;;;;;;;;1044602;28;3774;-46
2022/07/06 02:15:16;;;;;;;;;;;;;;;;;;1043862;28;3851;-50
2022/07/06 02:15:46;;;;;;;;;;;;;;;;;;1045670;28;1603;-52
2022/07/06 02:16:16;;;;;;;;;;;;;;;;;;1045259;28;3911;-49
2022/07/06 02:16:47;;;;;;;;;;;;;;;;;;1044314;28;2493;-48
2022/07/06 02:17:17;;;;;;;;;;;;;;;;;;1043832;28;3841;-49
2022/07/06 02:17:47;;;;;;;;;;;;;;;;;;1044161;28;3744;-52
2022/07/06 02:18:17;;;;;;;;;;;;;;;;;;1044427;28;3761;-45
2022/07/06 02:18:48;;;;;;;;;;;;;;;;;;1041545;28;1675;-47
2022/07/06 02:19:18;;;;;;;;;;;;;;;;;;1040147;28;3950;-51
2022/07/06 02:19:48;;;;;;;;;;;;;;;;;;1041574;28;1178;-49
2022/07/06 02:20:18;;;;;;;;;;;;;;;;;;1036706;28;3914;-47
2022/07/06 02:20:49;;;;;;;;;;;;;;;;;;1041489;28;4324;-50
2022/07/06 02:21:19;;;;;;;;;;;;;;;;;;1037495;28;2415;-45
2022/07/06 02:21:50;;;;;;;;;;;;;;;;;;1033854;28;3825;-51
2022/07/06 02:22:20;;;;;;;;;;;;;;;;;;1039238;28;3716;-46
2022/07/06 02:22:50;;;;;;;;;;;;;;;;;;1039479;28;4066;-46
2022/07/06 02:23:20;;;;;;;;;;;;;;;;;;1042580;28;3562;-46
2022/07/06 02:23:51;;;;;;;;;;;;;;;;;;1041034;28;4460;-47
2022/07/06 02:24:21;;;;;;;;;;;;;;;;;;1043162;28;3754;-50
2022/07/06 02:24:51;;;;;;;;;;;;;;;;;;1042071;28;3921;-53
2022/07/06 02:25:22;;;;;;;;;;;;;;;;;;1044857;28;3361;-50
2022/07/06 02:25:52;;;;;;;;;;;;;;;;;;1042441;28;4033;-48
2022/07/06 02:26:22;;;;;;;;;;;;;;;;;;1039598;28;2452;-46
2022/07/06 02:26:53;;;;;;;;;;;;;;;;;;1037550;28;3914;-49
2022/07/06 02:27:23;;;;;;;;;;;;;;;;;;1040309;28;2795;-44
2022/07/06 02:27:53;;;;;;;;;;;;;;;;;;1035282;28;4243;-50
2022/07/06 02:28:23;;;;;;;;;;;;;;;;;;1043143;28;4223;-53
2022/07/06 02:28:54;;;;;;;;;;;;;;;;;;1040230;28;3814;-49
2022/07/06 02:29:25;;;;;;;;;;;;;;;;;;1042897;28;3294;-45
2022/07/06 02:29:56;;;;;;;;;;;;;;;;;;1043588;28;4267;-47
2022/07/06 02:30:26;;;;;;;;;;;;;;;;;;1045325;28;3317;-49
2022/07/06 02:30:56;;;;;;;;;;;;;;;;;;1043918;28;3904;-48
2022/07/06 02:31:26;;;;;;;;;;;;;;;;;;1045524;28;1465;-46
2022/07/06 02:31:57;;;;;;;;;;;;;;;;;;1043833;28;4239;-52
2022/07/06 02:32:27;;;;;;;;;;;;;;;;;;1044890;28;1427;-47
2022/07/06 02:32:57;;;;;;;;;;;;;;;;;;1043802;28;3985;-51
2022/07/06 02:33:27;;;;;;;;;;;;;;;;;;1044934;28;1610;-50
2022/07/06 02:33:58;;;;;;;;;;;;;;;;;;1040136;28;3917;-46
2022/07/06 02:34:28;;;;;;;;;;;;;;;;;;1041868;28;1673;-49
2022/07/06 02:34:58;;;;;;;;;;;;;;;;;;1039728;28;3905;-46
2022/07/06 02:35:29;;;;;;;;;;;;;;;;;;1041494;28;1696;-48
2022/07/06 02:35:59;;;;;;;;;;;;;;;;;;1043943;28;4461;-50
2022/07/06 02:36:30;;;;;;;;;;;;;;;;;;1045094;28;2497;-48
2022/07/06 02:37:00;;;;;;;;;;;;;;;;;;1042601;28;5138;-50
2022/07/06 02:37:30;;;;;;;;;;;;;;;;;;1044897;28;2035;-47
2022/07/06 02:38:00;;;;;;;;;;;;;;;;;;1043111;28;3911;-47
2022/07/06 02:38:31;;;;;;;;;;;;;;;;;;1040924;28;1960;-44
2022/07/06 02:39:01;;;;;;;;;;;;;;;;;;1039803;28;4014;-49
2022/07/06 02:39:38;;;;;;;;;;;;;;;;;;1038326;28;1593;-46
2022/07/06 02:40:15;;;;;;;;;;;;;;;;;;1035965;28;3918;-47
2022/07/06 02:40:52;;;;;;;;;;;;;;;;;;1036258;28;3883;-47
2022/07/06 02:41:22;;;;;;;;;;;;;;;;;;1036688;28;1840;-48
2022/07/06 02:41:52;;;;;;;;;;;;;;;;;;1036476;28;4039;-44
2022/07/06 02:42:23;;;;;;;;;;;;;;;;;;1035293;28;3820;-51
2022/07/06 02:42:53;;;;;;;;;;;;;;;;;;1036790;28;4447;-48
2022/07/06 02:43:23;;;;;;;;;;;;;;;;;;1034814;28;3281;-47
2022/07/06 02:43:53;;;;;;;;;;;;;;;;;;1036112;28;4049;-45
2022/07/06 02:44:24;;;;;;;;;;;;;;;;;;1037584;28;2672;-48
2022/07/06 02:44:54;;;;;;;;;;;;;;;;;;1036211;28;3804;-47
2022/07/06 02:45:24;;;;;;;;;;;;;;;;;;1036347;28;2682;-50
2022/07/06 02:45:55;;;;;;;;;;;;;;;;;;1036225;28;3955;-50
2022/07/06 02:46:25;;;;;;;;;;;;;;;;;;1036013;28;3167;-45
2022/07/06 02:46:55;;;;;;;;;;;;;;;;;;1036689;28;4408;-45
2022/07/06 02:47:28;;;;;;;;;;;;;;;;;;1036493;28;3810;-48
2022/07/06 02:47:58;;;;;;;;;;;;;;;;;;1041242;28;4001;-48
2022/07/06 02:48:29;;;;;;;;;;;;;;;;;;1039817;28;3777;-49
2022/07/06 02:48:59;;;;;;;;;;;;;;;;;;1040959;28;4070;-49
2022/07/06 02:49:29;;;;;;;;;;;;;;;;;;1041360;28;2940;-47
2022/07/06 02:49:59;;;;;;;;;;;;;;;;;;1034997;28;4475;-50
2022/07/06 02:50:30;;;;;;;;;;;;;;;;;;1037536;28;4296;-47
2022/07/06 02:51:00;;;;;;;;;;;;;;;;;;1035687;28;3814;-46
2022/07/06 02:51:30;;;;;;;;;;;;;;;;;;1036121;28;3212;-44
2022/07/06 02:52:00;;;;;;;;;;;;;;;;;;1034604;28;4026;-49
2022/07/06 02:52:31;;;;;;;;;;;;;;;;;;1037210;28;2160;-46
2022/07/06 02:53:01;;;;;;;;;;;;;;;;;;1035985;28;3976;-47
2022/07/06 02:53:32;;;;;;;;;;;;;;;;;;1036430;28;3768;-46
2022/07/06 02:54:02;;;;;;;;;;;;;;;;;;1035940;28;5479;-48
2022/07/06 02:54:39;;;;;;;;;;;;;;;;;;1037482;28;1406;-46
2022/07/06 02:55:09;;;;;;;;;;;;;;;;;;1035785;28;4178;-49
2022/07/06 02:55:40;;;;;;;;;;;;;;;;;;1038856;28;1381;-48
2022/07/06 02:56:10;;;;;;;;;;;;;;;;;;1039825;28;3795;-48
2022/07/06 02:56:40;;;;;;;;;;;;;;;;;;1041211;28;1310;-48
2022/07/06 02:57:10;;;;;;;;;;;;;;;;;;1033671;28;3973;-48
2022/07/06 02:57:41;;;;;;;;;;;;;;;;;;1037242;28;3684;-44
2022/07/06 02:58:11;;;;;;;;;;;;;;;;;;1035265;28;4018;-44
2022/07/06 02:58:41;;;;;;;;;;;;;;;;;;1037107;28;1341;-47
2022/07/06 02:59:12;;;;;;;;;;;;;;;;;;1036078;28;3967;-46
2022/07/06 02:59:42;;;;;;;;;;;;;;;;;;1037604;28;1098;-49
2022/07/06 03:00:13;;;;;;;;;;;;;;;;;;1034527;28;3976;-47
2022/07/06 03:00:43;;;;;;;;;;;;;;;;;;1037079;28;3656;-46
2022/07/06 03:01:13;;;;;;;;;;;;;;;;;;1035506;28;4392;-49
2022/07/06 03:01:43;;;;;;;;;;;;;;;;;;1037937;28;1538;-46
2022/07/06 03:02:14;;;;;;;;;;;;;;;;;;1035435;28;4293;-48
2022/07/06 03:02:44;;;;;;;;;;;;;;;;;;1035351;28;3383;-49
2022/07/06 03:03:14;;;;;;;;;;;;;;;;;;1035427;28;3842;-46
2022/07/06 03:03:44;;;;;;;;;;;;;;;;;;1035952;28;3006;-49
2022/07/06 03:04:15;;;;;;;;;;;;;;;;;;1034577;28;4067;-46
2022/07/06 03:04:45;;;;;;;;;;;;;;;;;;1036012;28;2303;-44
2022/07/06 03:05:15;;;;;;;;;;;;;;;;;;1035168;28;4459;-47
2022/07/06 03:05:48;;;;;;;;;;;;;;;;;;1036819;28;2424;-49
2022/07/06 03:06:18;;;;;;;;;;;;;;;;;;1035280;28;3831;-49
2022/07/06 03:06:49;;;;;;;;;;;;;;;;;;1035555;28;2796;-47
2022/07/06 03:07:19;;;;;;;;;;;;;;;;;;1034663;28;6831;-49
2022/07/06 03:07:49;;;;;;;;;;;;;;;;;;1035600;28;4005;-47
2022/07/06 03:08:19;;;;;;;;;;;;;;;;;;1036510;28;3281;-45
2022/07/06 03:08:50;;;;;;;;;;;;;;;;;;1036633;28;4003;-47
2022/07/06 03:09:20;;;;;;;;;;;;;;;;;;1035917;28;3760;-47
2022/07/06 03:09:50;;;;;;;;;;;;;;;;;;1037330;28;4104;-48
2022/07/06 03:10:20;;;;;;;;;;;;;;;;;;1036952;28;3292;-48
2022/07/06 03:10:51;;;;;;;;;;;;;;;;;;1036406;28;3936;-49
2022/07/06 03:11:21;;;;;;;;;;;;;;;;;;1031665;28;3730;-49
2022/07/06 03:11:52;;;;;;;;;;;;;;;;;;1035343;28;4149;-48
2022/07/06 03:12:22;;;;;;;;;;;;;;;;;;1035896;28;3392;-50
2022/07/06 03:12:53;;;;;;;;;;;;;;;;;;1032449;28;4457;-50
2022/07/06 03:13:23;;;;;;;;;;;;;;;;;;1037344;28;2872;-46
2022/07/06 03:13:53;;;;;;;;;;;;;;;;;;1032535;28;4116;-48
2022/07/06 03:14:25;;;;;;;;;;;;;;;;;;1030633;28;3841;-51
2022/07/06 03:14:55;;;;;;;;;;;;;;;;;;1035046;28;4163;-47
2022/07/06 03:15:25;;;;;;;;;;;;;;;;;;1035631;28;2974;-46
2022/07/06 03:15:55;;;;;;;;;;;;;;;;;;1035544;28;4598;-49
2022/07/06 03:16:26;;;;;;;;;;;;;;;;;;1037298;28;1383;-44
2022/07/06 03:16:56;;;;;;;;;;;;;;;;;;1035518;28;4401;-47
2022/07/06 03:17:26;;;;;;;;;;;;;;;;;;1037327;28;1760;-51
2022/07/06 03:17:56;;;;;;;;;;;;;;;;;;1036126;28;4438;-46
2022/07/06 03:18:27;;;;;;;;;;;;;;;;;;1034290;28;2992;-50
2022/07/06 03:18:57;;;;;;;;;;;;;;;;;;1035727;28;5322;-46
2022/07/06 03:19:27;;;;;;;;;;;;;;;;;;1036206;28;3251;-48
2022/07/06 03:19:58;;;;;;;;;;;;;;;;;;1035294;28;4099;-50
2022/07/06 03:20:28;;;;;;;;;;;;;;;;;;1037305;28;3334;-49
2022/07/06 03:20:58;;;;;;;;;;;;;;;;;;1035401;28;4420;-45
2022/07/06 03:21:29;;;;;;;;;;;;;;;;;;1035456;28;3780;-50
2022/07/06 03:21:59;;;;;;;;;;;;;;;;;;1034485;28;6288;-45
2022/07/06 03:22:30;;;;;;;;;;;;;;;;;;1035118;28;3134;-49
2022/07/06 03:23:00;;;;;;;;;;;;;;;;;;1035656;28;4284;-45
2022/07/06 03:23:30;;;;;;;;;;;;;;;;;;1035137;28;3366;-49
2022/07/06 03:24:00;;;;;;;;;;;;;;;;;;1038293;28;3896;-49
2022/07/06 03:24:31;;;;;;;;;;;;;;;;;;1039672;28;3927;-46
2022/07/06 03:25:01;;;;;;;;;;;;;;;;;;1038668;28;3931;-48
2022/07/06 03:25:32;;;;;;;;;;;;;;;;;;1041083;28;1769;-48
2022/07/06 03:26:02;;;;;;;;;;;;;;;;;;1034689;28;3820;-46
2022/07/06 03:26:33;;;;;;;;;;;;;;;;;;1036822;28;3343;-48
2022/07/06 03:27:03;;;;;;;;;;;;;;;;;;1036382;28;4052;-47
2022/07/06 03:27:35;;;;;;;;;;;;;;;;;;1037669;28;1775;-45
2022/07/06 03:28:05;;;;;;;;;;;;;;;;;;1035529;28;4040;-46
2022/07/06 03:28:36;;;;;;;;;;;;;;;;;;1032517;28;3760;-51
2022/07/06 03:29:06;;;;;;;;;;;;;;;;;;1036079;28;4283;-46
2022/07/06 03:29:36;;;;;;;;;;;;;;;;;;1036860;28;1376;-48
2022/07/06 03:30:07;;;;;;;;;;;;;;;;;;1034205;28;3997;-47
2022/07/06 03:30:37;;;;;;;;;;;;;;;;;;1037305;28;1380;-48
2022/07/06 03:31:07;;;;;;;;;;;;;;;;;;1035532;28;4068;-45
2022/07/06 03:31:38;;;;;;;;;;;;;;;;;;1036996;28;1674;-49
2022/07/06 03:32:15;;;;;;;;;;;;;;;;;;1035276;28;3907;-47
2022/07/06 03:32:45;;;;;;;;;;;;;;;;;;1035703;28;2616;-47
2022/07/06 03:33:16;;;;;;;;;;;;;;;;;;1035644;28;3932;-45
2022/07/06 03:33:46;;;;;;;;;;;;;;;;;;1037486;28;1716;-49